Time;durP1;ratioP1;P1;durP2;ratioP2;P2;SDS_P1;SDS_P2;PMS_P1;PMS_P2;Temp;Humidity;BMP_temperature;BMP_pressure;BME280_temperature;BME280_humidity;BME280_pressure;Samples;Min_cycle;Max_cycle;Signal;HPM_P1;HPM_P2
2023/09/09 00:00:57;;;;;;;6.17;5.63;;;;;;;14.15;100.00;99675.50;4987811;28;20200;-83
2023/09/09 00:03:32;;;;;;;6.87;6.33;;;;;;;14.08;100.00;99674.84;4980536;28;20204;-83
2023/09/09 00:06:09;;;;;;;7.23;6.50;;;;;;;14.05;100.00;99669.91;4986899;28;20283;-84
2023/09/09 00:08:38;;;;;;;6.77;6.03;;;;;;;14.03;100.00;99663.97;4990526;28;20200;-83
2023/09/09 00:11:09;;;;;;;6.70;6.10;;;;;;;14.03;100.00;99672.06;4983622;28;20200;-83
2023/09/09 00:13:38;;;;;;;6.07;5.57;;;;;;;13.98;100.00;99662.00;4967735;28;20673;-81
2023/09/09 00:16:06;;;;;;;6.63;6.03;;;;;;;13.97;100.00;99665.75;4987493;28;20211;-81
2023/09/09 00:18:37;;;;;;;6.70;6.10;;;;;;;13.93;100.00;99664.59;4989563;28;20282;-82
2023/09/09 00:21:05;;;;;;;6.90;6.30;;;;;;;13.90;100.00;99669.66;4987416;28;20200;-81
2023/09/09 00:23:37;;;;;;;6.43;5.83;;;;;;;13.89;100.00;99670.72;4980332;28;20200;-82
2023/09/09 00:26:12;;;;;;;6.90;6.40;;;;;;;13.85;100.00;99666.88;4981898;28;20203;-82
2023/09/09 00:28:41;;;;;;;7.63;6.70;;;;;;;13.75;100.00;99672.88;4982328;28;20868;-81
2023/09/09 00:31:16;;;;;;;7.00;6.40;;;;;;;13.73;100.00;99663.38;4974771;28;20204;-81
2023/09/09 00:33:50;;;;;;;7.20;6.60;;;;;;;13.70;100.00;99656.59;4981344;28;20282;-81
2023/09/09 00:36:23;;;;;;;6.83;6.23;;;;;;;13.65;100.00;99656.50;4980854;28;20231;-82
2023/09/09 00:38:54;;;;;;;7.30;6.60;;;;;;;13.60;100.00;99659.91;4985059;28;20199;-81
2023/09/09 00:41:24;;;;;;;7.23;6.53;;;;;;;13.53;100.00;99655.72;4973182;28;20328;-81
2023/09/09 00:43:54;;;;;;;7.23;6.57;;;;;;;13.48;100.00;99661.00;4994112;28;20246;-81
2023/09/09 00:46:22;;;;;;;8.03;7.23;;;;;;;13.47;100.00;99656.66;4977110;28;20214;-82
2023/09/09 00:48:59;;;;;;;7.70;7.00;;;;;;;13.43;100.00;99656.34;4991482;28;20222;-82
2023/09/09 00:51:31;;;;;;;8.30;7.50;;;;;;;13.43;100.00;99663.59;5005695;28;20209;-81
2023/09/09 00:54:01;;;;;;;7.67;7.07;;;;;;;13.40;100.00;99658.66;5005385;28;20203;-82
2023/09/09 00:56:29;;;;;;;8.40;7.60;;;;;;;13.37;100.00;99664.53;5004343;28;20297;-82
2023/09/09 00:59:00;;;;;;;8.43;7.43;;;;;;;13.32;100.00;99667.94;5010863;28;20179;-82
2023/09/09 01:01:32;;;;;;;8.80;8.03;;;;;;;13.29;100.00;99671.09;4994258;28;20202;-81
2023/09/09 01:04:06;;;;;;;7.80;7.10;;;;;;;13.29;100.00;99670.28;4964474;28;20293;-81
2023/09/09 01:06:38;;;;;;;8.33;7.53;;;;;;;13.25;100.00;99672.59;5010735;28;20294;-81
2023/09/09 01:09:08;;;;;;;7.80;7.10;;;;;;;13.22;100.00;99671.22;5012675;28;20231;-80
2023/09/09 01:11:39;;;;;;;8.07;7.30;;;;;;;13.21;100.00;99669.56;4964883;28;20213;-80
2023/09/09 01:14:16;;;;;;;8.20;7.50;;;;;;;13.16;100.00;99666.75;5013586;28;20282;-81
2023/09/09 01:16:52;;;;;;;8.23;7.43;;;;;;;13.13;100.00;99672.63;4987853;28;20223;-81
2023/09/09 01:19:27;;;;;;;8.23;7.43;;;;;;;13.15;100.00;99669.72;4992291;28;20215;-81
2023/09/09 01:22:03;;;;;;;8.90;7.87;;;;;;;13.12;100.00;99667.47;4995902;28;20245;-82
2023/09/09 01:24:38;;;;;;;8.60;7.80;;;;;;;13.09;100.00;99666.06;4980734;28;20554;-83
2023/09/09 01:27:06;;;;;;;8.43;7.73;;;;;;;13.10;100.00;99666.88;4968786;28;20206;-82
2023/09/09 01:29:37;;;;;;;8.53;7.23;;;;;;;13.07;100.00;99668.13;5018064;28;20658;-82
2023/09/09 01:32:08;;;;;;;7.80;7.00;;;;;;;13.05;100.00;99662.19;5017017;28;20692;-83
2023/09/09 01:34:38;;;;;;;8.37;7.57;;;;;;;13.02;100.00;99659.13;5000502;28;20204;-82
2023/09/09 01:37:07;;;;;;;8.27;7.47;;;;;;;12.98;100.00;99664.16;5000786;28;20204;-80
2023/09/09 01:39:46;;;;;;;8.43;7.63;;;;;;;12.97;100.00;99662.53;5018918;28;20215;-80
2023/09/09 01:42:18;;;;;;;9.60;7.77;;;;;;;12.96;100.00;99657.41;5020176;28;20215;-81
2023/09/09 01:44:52;;;;;;;8.67;7.87;;;;;;;12.94;100.00;99657.63;5001698;28;20197;-80
2023/09/09 01:47:23;;;;;;;8.00;7.30;;;;;;;12.90;100.00;99655.63;5002032;28;20244;-80
2023/09/09 01:49:58;;;;;;;8.43;7.73;;;;;;;12.88;100.00;99665.81;5019499;28;20189;-80
2023/09/09 01:52:48;;;;;;;9.90;8.00;;;;;;;12.88;100.00;99665.81;5020074;28;20675;-80
2023/09/09 01:55:18;;;;;;;8.50;7.77;;;;;;;12.89;100.00;99659.38;5001618;28;20269;-81
2023/09/09 02:00:41;;;;;;;9.50;8.60;;;;;;;12.84;100.00;99668.13;5002645;28;20281;-81
2023/09/09 02:03:14;;;;;;;10.67;9.33;;;;;;;12.81;100.00;99660.56;5003225;28;20181;-82
2023/09/09 02:05:45;;;;;;;9.47;8.67;;;;;;;12.75;100.00;99662.28;5019580;28;20281;-81
2023/09/09 02:08:18;;;;;;;9.93;9.13;;;;;;;12.72;100.00;99662.78;5019056;28;20222;-81
2023/09/09 02:10:51;;;;;;;10.47;9.47;;;;;;;12.70;100.00;99666.72;5001923;28;20186;-81
2023/09/09 02:13:20;;;;;;;9.90;9.10;;;;;;;12.70;100.00;99664.84;5018364;28;20189;-80
2023/09/09 02:15:49;;;;;;;9.43;8.63;;;;;;;12.68;100.00;99666.16;5020052;28;20744;-81
2023/09/09 02:18:39;;;;;;;10.03;9.17;;;;;;;12.62;100.00;99665.22;5019815;28;20170;-82
2023/09/09 02:21:09;;;;;;;10.00;9.10;;;;;;;12.56;100.00;99668.81;5020090;28;20218;-80
2023/09/09 02:23:42;;;;;;;10.20;9.30;;;;;;;12.54;100.00;99664.72;5019642;28;20197;-81
2023/09/09 02:26:12;;;;;;;10.10;9.20;;;;;;;12.51;100.00;99673.25;4986920;28;20197;-81
2023/09/09 02:28:49;;;;;;;10.07;9.17;;;;;;;12.46;100.00;99667.75;5020491;28;20330;-81
2023/09/09 02:31:16;;;;;;;10.07;9.17;;;;;;;12.42;100.00;99670.06;5020424;28;20198;-81
2023/09/09 02:33:50;;;;;;;9.20;8.50;;;;;;;12.42;100.00;99670.06;5019601;28;20195;-81
2023/09/09 02:36:19;;;;;;;9.50;8.60;;;;;;;12.42;100.00;99674.63;5002492;28;20256;-81
2023/09/09 02:38:50;;;;;;;9.57;8.77;;;;;;;12.38;100.00;99668.91;4986090;28;20570;-81
2023/09/09 02:41:24;;;;;;;9.63;8.83;;;;;;;12.35;100.00;99666.69;5019277;28;20232;-81
2023/09/09 02:43:53;;;;;;;10.03;9.10;;;;;;;12.33;100.00;99666.09;5019451;28;20221;-81
2023/09/09 02:46:23;;;;;;;10.07;9.07;;;;;;;12.30;100.00;99667.38;4986897;28;20260;-81
2023/09/09 02:48:54;;;;;;;10.03;9.23;;;;;;;12.31;100.00;99666.34;5018552;28;20682;-81
2023/09/09 02:51:24;;;;;;;10.50;9.50;;;;;;;12.28;100.00;99669.47;4986487;28;20197;-81
2023/09/09 02:54:00;;;;;;;10.10;9.20;;;;;;;12.23;100.00;99666.63;5001266;28;20250;-81
2023/09/09 02:56:29;;;;;;;10.37;9.47;;;;;;;12.23;100.00;99668.50;5001352;28;20315;-81
2023/09/09 02:58:56;;;;;;;11.23;10.20;;;;;;;12.22;100.00;99670.41;4985645;28;20209;-81
2023/09/09 03:01:27;;;;;;;9.97;9.17;;;;;;;12.18;100.00;99673.75;5018296;28;20315;-81
2023/09/09 03:03:57;;;;;;;10.47;9.57;;;;;;;12.11;100.00;99671.16;5003043;28;20224;-81
2023/09/09 03:06:29;;;;;;;10.90;10.00;;;;;;;12.09;100.00;99672.41;5019238;28;20226;-82
2023/09/09 03:09:00;;;;;;;10.97;9.97;;;;;;;12.03;100.00;99671.50;5002219;28;20212;-83
2023/09/09 03:11:31;;;;;;;10.17;9.17;;;;;;;12.02;100.00;99680.59;5000870;28;20746;-81
2023/09/09 03:14:01;;;;;;;10.13;9.23;;;;;;;11.98;100.00;99681.28;5018664;28;20251;-81
2023/09/09 03:16:28;;;;;;;10.50;9.60;;;;;;;11.94;100.00;99670.19;5001466;28;20220;-82
2023/09/09 03:19:00;;;;;;;11.17;10.17;;;;;;;11.94;100.00;99674.72;5001412;28;20254;-81
2023/09/09 03:21:28;;;;;;;10.73;9.77;;;;;;;11.91;100.00;99662.56;5001467;28;20198;-81
2023/09/09 03:23:58;;;;;;;10.43;9.43;;;;;;;11.92;100.00;99674.94;5000825;28;20716;-81
2023/09/09 03:26:31;;;;;;;10.17;9.30;;;;;;;11.91;100.00;99662.56;5018169;28;20207;-81
2023/09/09 03:29:03;;;;;;;10.30;9.40;;;;;;;11.87;100.00;99667.56;5001986;28;20172;-81
2023/09/09 03:31:36;;;;;;;11.83;10.07;;;;;;;11.87;100.00;99664.88;5001335;28;20197;-81
2023/09/09 03:34:05;;;;;;;11.27;10.17;;;;;;;11.83;100.00;99663.69;5018855;28;20184;-81
2023/09/09 03:36:38;;;;;;;10.57;9.43;;;;;;;11.80;100.00;99663.34;5018566;28;20209;-81
2023/09/09 03:39:11;;;;;;;10.50;9.60;;;;;;;11.78;100.00;99668.09;4997908;28;20268;-81
2023/09/09 03:41:42;;;;;;;10.20;9.30;;;;;;;11.80;100.00;99668.72;4997568;28;20300;-81
2023/09/09 03:44:15;;;;;;;11.50;10.40;;;;;;;11.74;100.00;99664.25;4997494;28;20239;-81
2023/09/09 03:46:48;;;;;;;10.90;9.90;;;;;;;11.67;100.00;99660.78;4996759;28;20217;-81
2023/09/09 03:49:17;;;;;;;10.37;9.43;;;;;;;11.66;100.00;99664.53;4984975;28;20188;-81
2023/09/09 03:51:50;;;;;;;10.20;9.40;;;;;;;11.66;100.00;99664.53;4985141;28;20229;-81
2023/09/09 03:54:18;;;;;;;10.67;9.00;;;;;;;11.64;100.00;99659.38;5017681;28;20279;-80
2023/09/09 03:56:49;;;;;;;11.07;10.07;;;;;;;11.62;100.00;99666.81;4999359;28;20243;-81
2023/09/09 03:59:31;;;;;;;10.73;9.73;;;;;;;11.64;100.00;99663.91;5016055;28;20195;-81
2023/09/09 04:02:04;;;;;;;11.07;9.97;;;;;;;11.62;100.00;99660.66;5016336;28;20195;-82
2023/09/09 04:04:32;;;;;;;11.07;9.97;;;;;;;11.60;100.00;99663.56;5007967;28;20195;-82
2023/09/09 04:07:05;;;;;;;10.90;9.80;;;;;;;11.59;100.00;99655.72;5017451;28;20193;-80
2023/09/09 04:09:40;;;;;;;10.17;9.30;;;;;;;11.56;100.00;99665.06;4992024;28;20207;-81
2023/09/09 04:12:12;;;;;;;10.97;9.87;;;;;;;11.53;100.00;99667.34;5004152;28;20203;-81
2023/09/09 04:14:44;;;;;;;10.80;9.90;;;;;;;11.50;100.00;99663.25;5001613;28;20196;-82
2023/09/09 04:17:12;;;;;;;10.37;9.47;;;;;;;11.49;100.00;99665.13;4985325;28;20209;-81
2023/09/09 04:19:41;;;;;;;11.10;9.63;;;;;;;11.46;100.00;99662.91;5015568;28;20196;-81
2023/09/09 04:22:11;;;;;;;10.67;9.67;;;;;;;11.45;100.00;99663.09;4992537;28;20200;-81
2023/09/09 04:24:42;;;;;;;10.17;9.27;;;;;;;11.45;100.00;99668.47;5016778;28;20725;-81
2023/09/09 04:27:12;;;;;;;11.03;9.83;;;;;;;11.44;100.00;99664.97;4998043;28;20201;-81
2023/09/09 04:29:41;;;;;;;10.97;9.97;;;;;;;11.46;100.00;99670.94;4999510;28;20235;-81
2023/09/09 04:32:13;;;;;;;11.47;10.47;;;;;;;11.49;100.00;99673.16;5016837;28;20192;-81
2023/09/09 04:34:52;;;;;;;11.20;10.20;;;;;;;11.50;100.00;99682.03;5017856;28;20199;-81
2023/09/09 04:37:24;;;;;;;11.53;10.40;;;;;;;11.50;100.00;99679.34;5000859;28;20216;-81
2023/09/09 04:39:57;;;;;;;11.00;9.90;;;;;;;11.52;100.00;99676.47;4991060;28;20185;-81
2023/09/09 04:42:35;;;;;;;11.70;10.70;;;;;;;11.57;100.00;99681.97;4981494;28;20691;-81
2023/09/09 04:45:05;;;;;;;11.13;10.23;;;;;;;11.59;100.00;99686.06;4992418;28;20289;-81
2023/09/09 04:47:34;;;;;;;11.10;10.20;;;;;;;11.61;100.00;99681.31;4960765;28;20197;-82
2023/09/09 04:50:03;;;;;;;10.90;10.00;;;;;;;11.66;100.00;99686.00;4979354;28;20201;-82
2023/09/09 04:52:44;;;;;;;10.97;10.07;;;;;;;11.69;100.00;99694.41;4995232;28;20616;-81
2023/09/09 04:55:18;;;;;;;11.07;10.17;;;;;;;11.76;100.00;99686.28;4980883;28;20195;-82
2023/09/09 04:57:47;;;;;;;10.70;9.90;;;;;;;11.88;100.00;99693.38;4984588;28;20224;-82
2023/09/09 05:03:40;;;;;;;11.03;10.03;;;;;;;12.03;100.00;99684.91;5005178;28;20202;-81
2023/09/09 05:06:31;;;;;;;11.50;10.57;;;;;;;12.13;100.00;99684.38;5003717;28;20192;-81
2023/09/09 05:09:23;;;;;;;11.10;10.00;;;;;;;12.26;100.00;99687.69;4986309;28;20200;-83
2023/09/09 05:11:55;;;;;;;10.37;9.47;;;;;;;12.38;100.00;99690.38;4988462;28;20269;-83
2023/09/09 05:14:43;;;;;;;10.93;10.03;;;;;;;12.45;100.00;99683.06;4986675;28;20197;-83
2023/09/09 05:17:21;;;;;;;10.57;9.67;;;;;;;12.56;100.00;99687.63;4985978;28;20292;-81
2023/09/09 05:19:56;;;;;;;10.90;9.83;;;;;;;12.72;100.00;99688.84;4983087;28;20282;-82
2023/09/09 05:22:30;;;;;;;11.97;10.87;;;;;;;12.84;100.00;99691.50;4967177;28;20211;-81
2023/09/09 05:25:06;;;;;;;11.63;10.63;;;;;;;12.98;100.00;99684.88;4997640;28;20182;-81
2023/09/09 05:27:47;;;;;;;10.90;9.83;;;;;;;13.12;100.00;99686.28;4983442;28;20198;-81
2023/09/09 05:30:20;;;;;;;10.80;9.80;;;;;;;13.24;100.00;99684.44;4982658;28;20210;-81
2023/09/09 05:32:48;;;;;;;10.97;9.90;;;;;;;13.34;100.00;99686.53;4982876;28;20197;-83
2023/09/09 05:39:35;;;;;;;10.80;9.90;;;;;;;13.78;100.00;99683.16;4983867;28;20170;-81
2023/09/09 05:42:07;;;;;;;11.13;10.13;;;;;;;13.97;100.00;99698.06;4982629;28;20198;-81
2023/09/09 05:44:38;;;;;;;10.90;9.90;;;;;;;14.11;100.00;99694.03;4965273;28;20196;-81
2023/09/09 05:47:09;;;;;;;11.63;10.63;;;;;;;14.29;100.00;99697.59;4978289;28;20195;-80
2023/09/09 05:49:40;;;;;;;12.20;11.10;;;;;;;14.43;100.00;99697.06;4978231;28;20203;-81
2023/09/09 05:52:11;;;;;;;11.03;10.03;;;;;;;14.64;100.00;99695.56;4976303;28;20679;-81
2023/09/09 05:54:45;;;;;;;11.03;9.93;;;;;;;14.81;100.00;99699.06;4977062;28;20294;-81
2023/09/09 05:57:17;;;;;;;11.90;10.80;;;;;;;15.02;100.00;99702.09;4960470;28;20219;-84
2023/09/09 05:59:46;;;;;;;11.30;10.27;;;;;;;15.17;100.00;99696.91;4992313;28;20282;-81
2023/09/09 06:02:20;;;;;;;11.67;10.53;;;;;;;15.34;100.00;99698.53;4992336;28;20285;-82
2023/09/09 06:04:55;;;;;;;10.90;9.97;;;;;;;15.50;100.00;99690.63;4977373;28;20192;-84
2023/09/09 06:07:26;;;;;;;11.60;10.50;;;;;;;15.62;100.00;99694.88;4991657;28;20189;-82
2023/09/09 06:09:57;;;;;;;11.77;10.57;;;;;;;15.78;100.00;99698.56;4975844;28;20224;-82
2023/09/09 06:12:29;;;;;;;11.90;10.67;;;;;;;15.91;100.00;99700.88;4975764;28;20197;-82
2023/09/09 06:15:19;;;;;;;11.33;10.30;;;;;;;16.09;100.00;99697.88;4976950;28;20674;-83
2023/09/09 06:17:53;;;;;;;11.60;10.50;;;;;;;16.21;100.00;99701.25;4975699;28;20227;-83
2023/09/09 06:20:21;;;;;;;11.87;10.67;;;;;;;16.34;100.00;99694.59;4976975;28;20235;-83
2023/09/09 06:22:53;;;;;;;11.30;10.30;;;;;;;16.48;100.00;99698.53;4961424;28;20212;-83
2023/09/09 06:25:22;;;;;;;12.20;11.10;;;;;;;16.62;100.00;99694.34;4975699;28;20200;-83
2023/09/09 06:27:54;;;;;;;11.50;10.40;;;;;;;16.78;100.00;99700.72;4976193;28;20256;-83
2023/09/09 06:30:22;;;;;;;10.73;9.83;;;;;;;16.87;100.00;99695.66;4976121;28;20676;-84
2023/09/09 06:32:49;;;;;;;11.10;10.07;;;;;;;16.99;100.00;99691.69;4976627;28;20658;-83
2023/09/09 06:35:17;;;;;;;10.50;9.53;;;;;;;17.14;100.00;99702.63;4991809;28;20199;-83
2023/09/09 06:37:55;;;;;;;10.90;9.87;;;;;;;17.25;100.00;99706.22;4976080;28;20236;-83
2023/09/09 06:40:24;;;;;;;11.13;10.20;;;;;;;17.40;100.00;99705.50;4997548;28;20269;-83
2023/09/09 06:42:55;;;;;;;11.20;10.10;;;;;;;17.53;100.00;99707.72;4995280;28;20207;-83
2023/09/09 06:45:25;;;;;;;10.87;9.77;;;;;;;17.64;100.00;99712.13;5000057;28;20195;-83
2023/09/09 06:48:00;;;;;;;10.83;9.83;;;;;;;17.75;100.00;99713.81;5004447;28;20199;-85
2023/09/09 06:50:34;;;;;;;10.30;9.30;;;;;;;17.88;100.00;99716.03;4979219;28;20210;-85
2023/09/09 06:53:03;;;;;;;11.37;10.10;;;;;;;17.94;100.00;99720.41;4995729;28;20282;-86
2023/09/09 06:55:34;;;;;;;10.90;9.80;;;;;;;18.14;100.00;99718.84;4995811;28;20248;-86
2023/09/09 06:58:04;;;;;;;10.13;9.13;;;;;;;18.28;100.00;99723.50;4981637;28;20229;-83
2023/09/09 07:00:36;;;;;;;10.57;9.57;;;;;;;18.43;100.00;99722.69;4988422;28;20209;-83
2023/09/09 07:03:05;;;;;;;13.00;9.50;;;;;;;18.59;100.00;99727.13;4985170;28;20209;-83
2023/09/09 07:05:37;;;;;;;10.33;9.40;;;;;;;18.71;100.00;99721.44;4980760;28;20198;-84
2023/09/09 07:08:09;;;;;;;10.70;9.70;;;;;;;18.77;100.00;99728.47;4976582;28;20713;-84
2023/09/09 07:10:56;;;;;;;10.03;9.03;;;;;;;18.94;100.00;99729.03;4999373;28;20276;-85
2023/09/09 07:13:31;;;;;;;10.43;9.33;;;;;;;18.97;100.00;99720.34;4985285;28;20277;-82
2023/09/09 07:16:00;;;;;;;9.37;8.47;;;;;;;19.15;100.00;99714.34;4987902;28;20213;-84
2023/09/09 07:18:30;;;;;;;9.83;9.03;;;;;;;19.30;100.00;99719.78;4980431;28;20199;-83
2023/09/09 07:21:31;;;;;;;10.13;9.13;;;;;;;19.41;100.00;99725.19;4990756;28;20262;-84
2023/09/09 07:24:01;;;;;;;9.57;8.73;;;;;;;19.56;100.00;99719.72;4982969;28;20204;-84
2023/09/09 07:26:31;;;;;;;10.10;9.20;;;;;;;19.57;100.00;99719.47;4993265;28;20223;-83
2023/09/09 07:29:01;;;;;;;10.07;8.77;;;;;;;19.77;100.00;99724.84;4959598;28;20196;-85
2023/09/09 07:31:29;;;;;;;9.07;8.17;;;;;;;19.94;100.00;99719.06;4978966;28;20247;-85
2023/09/09 07:34:01;;;;;;;8.80;7.90;;;;;;;20.09;100.00;99721.72;4983036;28;20191;-85
2023/09/09 07:36:32;;;;;;;9.37;8.47;;;;;;;20.23;100.00;99724.63;4979043;28;20242;-85
2023/09/09 07:38:59;;;;;;;9.60;8.60;;;;;;;20.30;100.00;99727.88;4984281;28;20205;-83
2023/09/09 07:41:26;;;;;;;8.87;8.07;;;;;;;20.45;100.00;99725.06;4999597;28;20617;-83
2023/09/09 07:43:55;;;;;;;8.83;8.13;;;;;;;20.52;100.00;99722.03;5002181;28;20213;-83
2023/09/09 07:46:23;;;;;;;8.73;7.93;;;;;;;20.65;100.00;99722.22;5001761;28;20230;-83
2023/09/09 07:49:05;;;;;;;8.17;7.47;;;;;;;20.74;100.00;99713.44;4989897;28;20745;-82
2023/09/09 07:51:35;;;;;;;8.67;7.87;;;;;;;20.90;100.00;99717.69;4997951;28;20255;-83
2023/09/09 07:54:07;;;;;;;10.43;8.20;;;;;;;21.01;100.00;99720.03;5005457;28;20270;-83
2023/09/09 07:56:42;;;;;;;8.17;7.47;;;;;;;21.10;100.00;99723.75;5005743;28;20235;-83
2023/09/09 07:59:10;;;;;;;8.13;7.30;;;;;;;21.31;100.00;99718.16;5000398;28;20487;-83
2023/09/09 08:01:42;;;;;;;7.85;6.93;;;;;;;21.46;100.00;99709.81;4975751;28;20184;-82
2023/09/09 08:04:11;;;;;;;8.30;7.30;;;;;;;21.69;100.00;99710.94;4960958;28;20193;-83
2023/09/09 08:06:48;;;;;;;9.77;8.80;;;;;;;21.81;100.00;99720.31;5000525;28;20191;-83
2023/09/09 08:09:22;;;;;;;8.13;7.28;;;;;;;22.02;100.00;99715.47;5000706;28;20265;-83
2023/09/09 08:11:50;;;;;;;13.38;12.10;;;;;;;22.16;100.00;99707.38;4980605;28;20275;-82
2023/09/09 08:14:21;;;;;;;14.88;10.88;;;;;;;22.28;100.00;99714.00;5000352;28;20739;-84
2023/09/09 08:16:51;;;;;;;7.72;6.82;;;;;;;22.40;100.00;99710.81;5006651;28;20223;-81
2023/09/09 08:19:18;;;;;;;7.88;6.65;;;;;;;22.57;100.00;99711.13;4999109;28;20245;-83
2023/09/09 08:21:46;;;;;;;9.55;6.93;;;;;;;22.65;100.00;99715.09;4979947;28;20839;-82
2023/09/09 08:24:22;;;;;;;8.02;6.97;;;;;;;22.82;100.00;99707.19;4989865;28;20687;-82
2023/09/09 08:26:50;;;;;;;7.88;7.00;;;;;;;22.94;100.00;99702.09;4999986;28;20730;-82
2023/09/09 08:29:21;;;;;;;6.97;6.38;;;;;;;23.12;100.00;99703.97;5009110;28;20204;-82
2023/09/09 08:31:51;;;;;;;10.38;9.48;;;;;;;23.30;100.00;99701.44;4981397;28;20286;-84
2023/09/09 08:34:22;;;;;;;8.10;7.32;;;;;;;23.45;100.00;99695.75;5001806;28;20677;-83
2023/09/09 08:36:54;;;;;;;6.20;5.70;;;;;;;23.71;100.00;99694.13;5002688;28;20212;-84
2023/09/09 08:39:26;;;;;;;6.75;6.05;;;;;;;23.93;100.00;99690.69;5012249;28;20208;-84
2023/09/09 08:42:22;;;;;;;8.68;6.72;;;;;;;24.08;100.00;99693.88;4986813;28;20242;-84
2023/09/09 08:45:16;;;;;;;7.15;6.20;;;;;;;24.20;100.00;99690.66;5001488;28;20273;-84
2023/09/09 08:47:50;;;;;;;6.50;6.00;;;;;;;24.35;100.00;99690.31;4984222;28;20199;-84
2023/09/09 08:50:24;;;;;;;13.05;11.48;;;;;;;24.62;100.00;99691.34;4974918;28;20211;-84
2023/09/09 08:52:53;;;;;;;6.63;5.93;;;;;;;24.95;100.00;99682.59;4982979;28;20209;-84
2023/09/09 08:55:24;;;;;;;8.23;7.50;;;;;;;25.12;100.00;99697.50;5011786;28;20572;-84
2023/09/09 08:57:52;;;;;;;7.10;5.75;;;;;;;25.22;100.00;99689.00;4981153;28;20706;-84
2023/09/09 09:00:20;;;;;;;5.72;5.03;;;;;;;25.42;100.00;99688.47;4985204;28;20213;-85
2023/09/09 09:02:50;;;;;;;6.55;5.20;;;;;;;25.55;100.00;99684.84;5010811;28;20231;-85
2023/09/09 09:05:26;;;;;;;5.20;4.70;;;;;;;25.77;100.00;99689.44;4990461;28;20278;-85
2023/09/09 09:07:56;;;;;;;5.07;4.68;;;;;;;25.90;100.00;99682.22;4968919;28;20204;-85
2023/09/09 09:10:24;;;;;;;5.80;5.20;;;;;;;26.03;100.00;99671.09;4978893;28;20203;-85
2023/09/09 09:12:54;;;;;;;7.05;5.43;;;;;;;26.18;97.11;99683.53;4978560;28;20209;-85
2023/09/09 09:15:24;;;;;;;5.57;5.07;;;;;;;26.29;95.08;99682.94;5011037;28;20220;-83
2023/09/09 09:17:55;;;;;;;5.72;5.22;;;;;;;26.42;95.35;99675.66;4969062;28;20305;-84
2023/09/09 09:20:28;;;;;;;6.53;5.30;;;;;;;26.60;92.86;99680.03;4982621;28;20196;-84
2023/09/09 09:23:02;;;;;;;6.55;5.15;;;;;;;26.68;93.50;99670.19;4993654;28;20235;-84
2023/09/09 09:25:36;;;;;;;10.80;8.27;;;;;;;26.83;92.13;99669.66;4980194;28;20208;-86
2023/09/09 09:28:06;;;;;;;5.82;5.22;;;;;;;27.05;89.32;99674.19;4990351;28;20244;-85
2023/09/09 09:30:35;;;;;;;8.25;7.55;;;;;;;27.06;86.44;99665.59;4999438;28;20221;-85
2023/09/09 09:33:27;;;;;;;6.22;5.70;;;;;;;27.04;87.69;99670.63;4983029;28;20592;-84
2023/09/09 09:35:59;;;;;;;12.95;9.30;;;;;;;27.16;81.28;99669.94;5004313;28;20199;-85
2023/09/09 09:38:29;;;;;;;6.20;4.90;;;;;;;27.22;81.16;99665.06;4982602;28;20230;-84
2023/09/09 09:41:05;;;;;;;8.05;5.15;;;;;;;27.31;83.36;99663.91;4987755;28;20298;-83
2023/09/09 09:43:45;;;;;;;5.60;5.10;;;;;;;27.33;81.11;99667.13;4997256;28;20671;-83
2023/09/09 09:46:20;;;;;;;8.20;5.35;;;;;;;27.46;81.62;99657.84;4999873;28;20207;-83
2023/09/09 09:48:50;;;;;;;6.82;4.82;;;;;;;27.57;80.56;99661.09;4999518;28;20202;-85
2023/09/09 09:51:20;;;;;;;5.75;4.90;;;;;;;27.65;80.35;99654.72;5014980;28;20273;-84
2023/09/09 09:53:57;;;;;;;6.07;5.47;;;;;;;27.67;78.02;99657.16;4981668;28;20191;-84
2023/09/09 09:56:39;;;;;;;6.45;5.28;;;;;;;27.78;76.95;99666.63;4997821;28;20210;-85
2023/09/09 09:59:14;;;;;;;5.68;5.28;;;;;;;27.76;73.77;99661.47;4980394;28;20224;-85
2023/09/09 10:01:42;;;;;;;6.30;4.93;;;;;;;27.70;74.28;99659.22;5013623;28;20191;-85
2023/09/09 10:04:10;;;;;;;7.60;5.55;;;;;;;27.74;74.26;99660.97;5010761;28;20195;-84
2023/09/09 10:06:56;;;;;;;5.78;5.25;;;;;;;27.79;75.00;99658.03;4988185;28;20229;-84
2023/09/09 10:09:39;;;;;;;5.40;4.85;;;;;;;27.86;76.61;99661.06;4994255;28;20262;-83
2023/09/09 10:12:13;;;;;;;8.57;5.25;;;;;;;27.89;76.99;99656.84;5012999;28;20679;-83
2023/09/09 10:14:49;;;;;;;5.50;4.90;;;;;;;27.93;75.50;99655.03;4995047;28;20199;-84
2023/09/09 10:17:20;;;;;;;5.70;4.68;;;;;;;28.02;74.91;99664.06;4999035;28;20219;-83
2023/09/09 10:19:55;;;;;;;5.25;4.57;;;;;;;28.09;73.82;99664.31;4996275;28;20211;-82
2023/09/09 10:22:28;;;;;;;6.63;4.72;;;;;;;28.12;72.46;99652.69;4992331;28;20197;-83
2023/09/09 10:24:57;;;;;;;6.13;5.03;;;;;;;28.10;73.15;99654.91;4985726;28;20204;-83
2023/09/09 10:27:28;;;;;;;6.40;5.05;;;;;;;28.08;74.41;99654.47;5009651;28;20200;-83
2023/09/09 10:30:00;;;;;;;7.43;4.97;;;;;;;27.93;74.48;99655.84;5009970;28;20194;-83
2023/09/09 10:32:31;;;;;;;6.93;5.18;;;;;;;27.97;75.71;99653.22;4998269;28;20202;-82
2023/09/09 10:35:06;;;;;;;6.10;5.28;;;;;;;27.96;74.80;99646.09;4982685;28;20655;-83
2023/09/09 10:37:48;;;;;;;5.65;5.05;;;;;;;27.94;75.33;99656.66;4999081;28;20297;-85
2023/09/09 10:40:19;;;;;;;5.50;4.90;;;;;;;28.02;75.62;99647.53;4997169;28;20238;-83
2023/09/09 10:42:53;;;;;;;6.03;5.13;;;;;;;28.04;76.94;99643.28;4975460;28;20230;-83
2023/09/09 10:45:28;;;;;;;6.43;5.30;;;;;;;28.18;75.73;99645.03;4980378;28;20195;-83
2023/09/09 10:48:06;;;;;;;9.88;5.30;;;;;;;28.23;75.04;99647.59;4998017;28;20237;-85
2023/09/09 10:50:46;;;;;;;7.78;5.07;;;;;;;28.24;74.72;99643.66;4994336;28;20279;-84
2023/09/09 10:53:27;;;;;;;6.90;5.40;;;;;;;28.28;74.91;99634.38;4998345;28;20207;-84
2023/09/09 10:56:03;;;;;;;5.30;4.80;;;;;;;28.29;73.59;99626.94;4997731;28;20206;-84
2023/09/09 10:58:35;;;;;;;5.38;4.88;;;;;;;28.39;73.75;99632.03;4994737;28;20219;-84
2023/09/09 11:01:07;;;;;;;5.55;5.00;;;;;;;28.49;73.31;99626.13;5011201;28;20195;-84
2023/09/09 11:03:47;;;;;;;8.93;5.22;;;;;;;28.63;73.33;99628.56;4997702;28;20292;-84
2023/09/09 11:09:27;;;;;;;10.48;5.22;;;;;;;28.70;71.90;99623.31;4999900;28;20207;-83
2023/09/09 11:11:55;;;;;;;6.88;5.07;;;;;;;28.73;72.25;99622.66;4995906;28;20198;-83
2023/09/09 11:14:32;;;;;;;7.97;5.63;;;;;;;28.80;71.62;99614.63;4992637;28;20203;-84
2023/09/09 11:17:00;;;;;;;5.90;5.40;;;;;;;28.86;71.20;99611.34;5011669;28;20750;-82
2023/09/09 11:19:30;;;;;;;5.72;5.22;;;;;;;28.95;70.69;99614.00;5008608;28;20692;-84
2023/09/09 11:21:58;;;;;;;10.65;5.45;;;;;;;29.01;70.62;99620.09;4994599;28;20199;-84
2023/09/09 11:24:26;;;;;;;7.10;5.35;;;;;;;29.02;69.33;99607.94;5008803;28;20192;-83
2023/09/09 11:26:58;;;;;;;5.35;4.95;;;;;;;29.10;70.28;99620.81;5004166;28;20209;-83
2023/09/09 11:29:30;;;;;;;7.07;4.90;;;;;;;29.13;70.09;99609.06;4997252;28;20233;-84
2023/09/09 11:32:08;;;;;;;5.50;5.10;;;;;;;29.19;68.09;99614.03;5011077;28;20277;-83
2023/09/09 11:34:38;;;;;;;5.93;5.32;;;;;;;29.14;68.73;99608.75;4983457;28;20282;-84
2023/09/09 11:37:12;;;;;;;9.18;5.38;;;;;;;29.04;69.20;99606.41;5011864;28;20727;-84
2023/09/09 11:39:40;;;;;;;5.95;5.35;;;;;;;29.15;68.41;99615.06;5007352;28;20203;-84
2023/09/09 11:42:11;;;;;;;5.60;5.10;;;;;;;29.27;68.91;99609.53;4984615;28;20235;-82
2023/09/09 11:44:43;;;;;;;6.32;4.70;;;;;;;29.36;68.09;99609.47;4985044;28;20212;-82
2023/09/09 11:47:21;;;;;;;8.73;5.22;;;;;;;29.36;67.92;99609.47;4993436;28;20295;-85
2023/09/09 11:49:53;;;;;;;6.57;5.03;;;;;;;29.52;65.94;99618.69;4964251;28;20247;-83
2023/09/09 11:52:23;;;;;;;5.28;4.85;;;;;;;29.54;65.78;99600.59;4968318;28;20253;-83
2023/09/09 11:54:57;;;;;;;5.68;4.80;;;;;;;29.44;65.60;99609.38;4992154;28;20200;-84
2023/09/09 11:57:28;;;;;;;8.02;4.90;;;;;;;29.55;64.62;99604.97;4981865;28;20675;-83
2023/09/09 12:00:00;;;;;;;6.18;4.85;;;;;;;29.59;65.00;99602.31;4983009;28;20214;-83